sensor_id;sensor_type;location;lat;lon;timestamp;temperature;humidity
1686;DHT22;840;47.980;7.830;2023-04-01T00:02:16;10.00;99.90
1686;DHT22;840;47.980;7.830;2023-04-01T00:04:43;10.00;99.90
1686;DHT22;840;47.980;7.830;2023-04-01T00:07:11;9.90;99.90
1686;DHT22;840;47.980;7.830;2023-04-01T00:09:38;9.80;99.90
1686;DHT22;840;47.980;7.830;2023-04-01T00:12:05;9.70;99.90
1686;DHT22;840;47.980;7.830;2023-04-01T00:14:31;9.70;99.90
1686;DHT22;840;47.980;7.830;2023-04-01T00:17:00;9.70;99.90
1686;DHT22;840;47.980;7.830;2023-04-01T00:19:27;9.60;99.90
1686;DHT22;840;47.980;7.830;2023-04-01T00:21:54;9.60;99.90
1686;DHT22;840;47.980;7.830;2023-04-01T00:24:22;9.60;99.90
1686;DHT22;840;47.980;7.830;2023-04-01T00:26:49;9.60;99.90
1686;DHT22;840;47.980;7.830;2023-04-01T00:29:16;9.60;99.90
1686;DHT22;840;47.980;7.830;2023-04-01T00:31:43;9.60;99.90
1686;DHT22;840;47.980;7.830;2023-04-01T00:34:12;9.60;99.90
1686;DHT22;840;47.980;7.830;2023-04-01T00:36:39;9.60;99.90
1686;DHT22;840;47.980;7.830;2023-04-01T00:39:06;9.60;99.90
1686;DHT22;840;47.980;7.830;2023-04-01T00:41:33;9.60;99.90
1686;DHT22;840;47.980;7.830;2023-04-01T00:44:18;9.60;99.90
1686;DHT22;840;47.980;7.830;2023-04-01T00:46:46;9.60;99.90
1686;DHT22;840;47.980;7.830;2023-04-01T00:49:17;9.50;99.90
1686;DHT22;840;47.980;7.830;2023-04-01T00:51:45;9.50;99.90
1686;DHT22;840;47.980;7.830;2023-04-01T00:54:14;9.50;99.90
1686;DHT22;840;47.980;7.830;2023-04-01T00:56:45;9.50;99.90
1686;DHT22;840;47.980;7.830;2023-04-01T00:59:16;9.60;99.90
1686;DHT22;840;47.980;7.830;2023-04-01T01:01:45;9.60;99.90
1686;DHT22;840;47.980;7.830;2023-04-01T01:04:23;9.60;99.90
1686;DHT22;840;47.980;7.830;2023-04-01T01:06:56;9.60;99.90
1686;DHT22;840;47.980;7.830;2023-04-01T01:09:36;9.60;99.90
1686;DHT22;840;47.980;7.830;2023-04-01T01:12:11;9.60;99.90
1686;DHT22;840;47.980;7.830;2023-04-01T01:14:53;9.70;99.90
1686;DHT22;840;47.980;7.830;2023-04-01T01:17:29;9.60;99.90
1686;DHT22;840;47.980;7.830;2023-04-01T01:23:18;9.60;99.90
1686;DHT22;840;47.980;7.830;2023-04-01T01:25:59;9.60;99.90
1686;DHT22;840;47.980;7.830;2023-04-01T01:28:40;9.60;99.90
1686;DHT22;840;47.980;7.830;2023-04-01T01:31:15;9.60;99.90
1686;DHT22;840;47.980;7.830;2023-04-01T01:33:50;9.60;99.90
1686;DHT22;840;47.980;7.830;2023-04-01T01:36:22;9.60;99.90
1686;DHT22;840;47.980;7.830;2023-04-01T01:38:52;9.60;99.90
1686;DHT22;840;47.980;7.830;2023-04-01T01:41:21;9.60;99.90
1686;DHT22;840;47.980;7.830;2023-04-01T01:43:50;9.60;99.90
1686;DHT22;840;47.980;7.830;2023-04-01T01:46:23;9.60;99.90
1686;DHT22;840;47.980;7.830;2023-04-01T01:48:51;9.60;99.90
1686;DHT22;840;47.980;7.830;2023-04-01T01:51:21;9.60;99.90
1686;DHT22;840;47.980;7.830;2023-04-01T01:53:49;9.70;99.90
1686;DHT22;840;47.980;7.830;2023-04-01T01:56:17;9.70;99.90
1686;DHT22;840;47.980;7.830;2023-04-01T01:58:46;9.70;99.90
1686;DHT22;840;47.980;7.830;2023-04-01T02:01:17;9.70;99.90
1686;DHT22;840;47.980;7.830;2023-04-01T02:03:47;9.70;99.90
1686;DHT22;840;47.980;7.830;2023-04-01T02:06:19;9.70;99.90
1686;DHT22;840;47.980;7.830;2023-04-01T02:08:50;9.70;99.90
1686;DHT22;840;47.980;7.830;2023-04-01T02:11:23;9.70;99.90
1686;DHT22;840;47.980;7.830;2023-04-01T02:13:54;9.70;99.90
1686;DHT22;840;47.980;7.830;2023-04-01T02:16:25;9.70;99.90
1686;DHT22;840;47.980;7.830;2023-04-01T02:18:55;9.70;99.90
1686;DHT22;840;47.980;7.830;2023-04-01T02:21:27;9.70;99.90
1686;DHT22;840;47.980;7.830;2023-04-01T02:23:56;9.70;99.90
1686;DHT22;840;47.980;7.830;2023-04-01T02:26:25;9.70;99.90
1686;DHT22;840;47.980;7.830;2023-04-01T02:28:53;9.70;99.90
1686;DHT22;840;47.980;7.830;2023-04-01T02:31:20;9.70;99.90
1686;DHT22;840;47.980;7.830;2023-04-01T02:33:48;9.70;99.90
1686;DHT22;840;47.980;7.830;2023-04-01T02:36:16;9.60;99.90
1686;DHT22;840;47.980;7.830;2023-04-01T02:38:45;9.60;99.90
1686;DHT22;840;47.980;7.830;2023-04-01T02:41:13;9.60;99.90
1686;DHT22;840;47.980;7.830;2023-04-01T02:43:40;9.50;99.90
1686;DHT22;840;47.980;7.830;2023-04-01T02:46:07;9.50;99.90
1686;DHT22;840;47.980;7.830;2023-04-01T02:48:34;9.50;99.90
1686;DHT22;840;47.980;7.830;2023-04-01T02:51:01;9.40;99.90
1686;DHT22;840;47.980;7.830;2023-04-01T02:53:28;9.40;99.90
1686;DHT22;840;47.980;7.830;2023-04-01T02:55:55;9.30;99.90
1686;DHT22;840;47.980;7.830;2023-04-01T02:58:24;9.20;99.90
1686;DHT22;840;47.980;7.830;2023-04-01T03:00:51;9.20;99.90
1686;DHT22;840;47.980;7.830;2023-04-01T03:03:18;9.20;99.90
1686;DHT22;840;47.980;7.830;2023-04-01T03:05:44;9.20;99.90
1686;DHT22;840;47.980;7.830;2023-04-01T03:08:11;9.20;99.90
1686;DHT22;840;47.980;7.830;2023-04-01T03:10:38;9.20;99.90
1686;DHT22;840;47.980;7.830;2023-04-01T03:13:05;9.20;99.90
1686;DHT22;840;47.980;7.830;2023-04-01T03:15:33;9.20;99.90
1686;DHT22;840;47.980;7.830;2023-04-01T03:18:00;9.10;99.90
1686;DHT22;840;47.980;7.830;2023-04-01T03:20:27;9.20;99.90
1686;DHT22;840;47.980;7.830;2023-04-01T03:22:54;9.20;99.90
1686;DHT22;840;47.980;7.830;2023-04-01T03:25:21;9.10;99.90
1686;DHT22;840;47.980;7.830;2023-04-01T03:27:48;9.10;99.90
1686;DHT22;840;47.980;7.830;2023-04-01T03:30:14;9.10;99.90
1686;DHT22;840;47.980;7.830;2023-04-01T03:32:43;9.20;99.90
1686;DHT22;840;47.980;7.830;2023-04-01T03:35:10;9.10;99.90
1686;DHT22;840;47.980;7.830;2023-04-01T03:37:37;9.10;99.90
1686;DHT22;840;47.980;7.830;2023-04-01T03:40:05;9.10;99.90
1686;DHT22;840;47.980;7.830;2023-04-01T03:42:32;9.10;99.90
1686;DHT22;840;47.980;7.830;2023-04-01T03:44:59;9.10;99.90
1686;DHT22;840;47.980;7.830;2023-04-01T03:47:26;9.00;99.90
1686;DHT22;840;47.980;7.830;2023-04-01T03:49:54;9.00;99.90
1686;DHT22;840;47.980;7.830;2023-04-01T03:52:21;9.00;99.90
1686;DHT22;840;47.980;7.830;2023-04-01T03:54:48;9.00;99.90
1686;DHT22;840;47.980;7.830;2023-04-01T03:57:14;8.90;99.90
1686;DHT22;840;47.980;7.830;2023-04-01T03:59:41;8.90;99.90
1686;DHT22;840;47.980;7.830;2023-04-01T04:02:08;8.90;99.90
1686;DHT22;840;47.980;7.830;2023-04-01T04:04:35;8.80;99.90
1686;DHT22;840;47.980;7.830;2023-04-01T04:07:03;8.80;99.90
1686;DHT22;840;47.980;7.830;2023-04-01T04:09:32;8.80;99.90
1686;DHT22;840;47.980;7.830;2023-04-01T04:11:59;8.80;99.90
1686;DHT22;840;47.980;7.830;2023-04-01T04:14:26;8.80;99.90
1686;DHT22;840;47.980;7.830;2023-04-01T04:16:53;8.80;99.90
1686;DHT22;840;47.980;7.830;2023-04-01T04:19:20;8.80;99.90
1686;DHT22;840;47.980;7.830;2023-04-01T04:21:47;8.80;99.90
1686;DHT22;840;47.980;7.830;2023-04-01T04:24:15;8.80;99.90
1686;DHT22;840;47.980;7.830;2023-04-01T04:26:42;8.80;99.90
1686;DHT22;840;47.980;7.830;2023-04-01T04:29:09;8.80;99.90
1686;DHT22;840;47.980;7.830;2023-04-01T04:31:36;8.90;99.90
1686;DHT22;840;47.980;7.830;2023-04-01T04:34:03;8.90;99.90
1686;DHT22;840;47.980;7.830;2023-04-01T04:36:29;8.90;99.90
1686;DHT22;840;47.980;7.830;2023-04-01T04:38:56;8.90;99.90
1686;DHT22;840;47.980;7.830;2023-04-01T04:41:28;9.00;99.90
1686;DHT22;840;47.980;7.830;2023-04-01T04:43:56;9.00;99.90
1686;DHT22;840;47.980;7.830;2023-04-01T04:46:24;9.00;99.90
1686;DHT22;840;47.980;7.830;2023-04-01T04:48:51;9.00;99.90
1686;DHT22;840;47.980;7.830;2023-04-01T04:51:19;9.00;99.90
1686;DHT22;840;47.980;7.830;2023-04-01T04:53:47;9.00;99.90
1686;DHT22;840;47.980;7.830;2023-04-01T04:56:17;9.00;99.90
1686;DHT22;840;47.980;7.830;2023-04-01T04:58:59;9.00;99.90
1686;DHT22;840;47.980;7.830;2023-04-01T05:01:26;9.00;99.90
1686;DHT22;840;47.980;7.830;2023-04-01T05:03:53;9.00;99.90
1686;DHT22;840;47.980;7.830;2023-04-01T05:06:20;9.00;99.90
1686;DHT22;840;47.980;7.830;2023-04-01T05:08:47;9.10;99.90
1686;DHT22;840;47.980;7.830;2023-04-01T05:11:15;9.10;99.90
1686;DHT22;840;47.980;7.830;2023-04-01T05:13:43;9.10;99.90
1686;DHT22;840;47.980;7.830;2023-04-01T05:16:14;9.20;99.90
1686;DHT22;840;47.980;7.830;2023-04-01T05:18:42;9.20;99.90
1686;DHT22;840;47.980;7.830;2023-04-01T05:21:10;9.20;99.90
1686;DHT22;840;47.980;7.830;2023-04-01T05:23:37;9.20;99.90
1686;DHT22;840;47.980;7.830;2023-04-01T05:26:06;9.20;99.90
1686;DHT22;840;47.980;7.830;2023-04-01T05:28:33;9.20;99.90
1686;DHT22;840;47.980;7.830;2023-04-01T05:31:01;9.20;99.90
1686;DHT22;840;47.980;7.830;2023-04-01T05:33:30;9.20;99.90
1686;DHT22;840;47.980;7.830;2023-04-01T05:35:58;9.20;99.90
1686;DHT22;840;47.980;7.830;2023-04-01T05:38:31;9.20;99.90
1686;DHT22;840;47.980;7.830;2023-04-01T05:40:59;9.20;99.90
1686;DHT22;840;47.980;7.830;2023-04-01T05:43:25;9.20;99.90
1686;DHT22;840;47.980;7.830;2023-04-01T05:45:53;9.30;99.90
1686;DHT22;840;47.980;7.830;2023-04-01T05:48:20;9.30;99.90
1686;DHT22;840;47.980;7.830;2023-04-01T05:50:48;9.30;99.90
1686;DHT22;840;47.980;7.830;2023-04-01T05:53:15;9.30;99.90
1686;DHT22;840;47.980;7.830;2023-04-01T05:55:42;9.40;99.90
1686;DHT22;840;47.980;7.830;2023-04-01T05:58:09;9.40;99.90
1686;DHT22;840;47.980;7.830;2023-04-01T06:00:36;9.40;99.90
1686;DHT22;840;47.980;7.830;2023-04-01T06:03:03;9.40;99.90
1686;DHT22;840;47.980;7.830;2023-04-01T06:05:35;9.40;99.90
1686;DHT22;840;47.980;7.830;2023-04-01T06:08:10;9.50;99.90
1686;DHT22;840;47.980;7.830;2023-04-01T06:10:48;9.60;99.90
1686;DHT22;840;47.980;7.830;2023-04-01T06:13:23;9.60;99.90
1686;DHT22;840;47.980;7.830;2023-04-01T06:15:58;9.60;99.90
1686;DHT22;840;47.980;7.830;2023-04-01T06:18:51;9.70;99.90
1686;DHT22;840;47.980;7.830;2023-04-01T06:24:38;9.70;99.90
1686;DHT22;840;47.980;7.830;2023-04-01T06:27:19;9.70;99.90
1686;DHT22;840;47.980;7.830;2023-04-01T06:29:58;9.70;99.90
1686;DHT22;840;47.980;7.830;2023-04-01T06:32:49;9.70;99.90
1686;DHT22;840;47.980;7.830;2023-04-01T06:38:41;9.80;99.90
1686;DHT22;840;47.980;7.830;2023-04-01T06:41:38;9.80;99.90
1686;DHT22;840;47.980;7.830;2023-04-01T06:44:16;9.80;99.90
1686;DHT22;840;47.980;7.830;2023-04-01T06:46:48;9.80;99.90
1686;DHT22;840;47.980;7.830;2023-04-01T06:49:28;9.90;99.90
1686;DHT22;840;47.980;7.830;2023-04-01T06:52:02;9.90;99.90
1686;DHT22;840;47.980;7.830;2023-04-01T06:54:34;9.90;99.90
1686;DHT22;840;47.980;7.830;2023-04-01T06:57:12;10.00;99.90
1686;DHT22;840;47.980;7.830;2023-04-01T06:59:41;10.00;99.90
1686;DHT22;840;47.980;7.830;2023-04-01T07:02:19;10.00;99.90
1686;DHT22;840;47.980;7.830;2023-04-01T07:04:48;10.00;99.90
1686;DHT22;840;47.980;7.830;2023-04-01T07:07:21;10.10;99.90
1686;DHT22;840;47.980;7.830;2023-04-01T07:09:53;10.10;99.90
1686;DHT22;840;47.980;7.830;2023-04-01T07:12:33;10.20;99.90
1686;DHT22;840;47.980;7.830;2023-04-01T07:15:05;10.20;99.90
1686;DHT22;840;47.980;7.830;2023-04-01T07:17:39;10.30;99.90
1686;DHT22;840;47.980;7.830;2023-04-01T07:20:15;10.40;99.90
1686;DHT22;840;47.980;7.830;2023-04-01T07:22:45;10.40;99.90
1686;DHT22;840;47.980;7.830;2023-04-01T07:25:14;10.50;99.90
1686;DHT22;840;47.980;7.830;2023-04-01T07:27:44;10.50;99.90
1686;DHT22;840;47.980;7.830;2023-04-01T07:30:15;10.60;99.90
1686;DHT22;840;47.980;7.830;2023-04-01T07:32:44;10.60;99.90
1686;DHT22;840;47.980;7.830;2023-04-01T07:35:21;10.60;99.90
1686;DHT22;840;47.980;7.830;2023-04-01T07:38:01;10.60;99.90
1686;DHT22;840;47.980;7.830;2023-04-01T07:40:35;10.60;99.90
1686;DHT22;840;47.980;7.830;2023-04-01T07:43:18;10.60;99.90
1686;DHT22;840;47.980;7.830;2023-04-01T07:45:55;10.60;99.90
1686;DHT22;840;47.980;7.830;2023-04-01T07:48:30;10.60;99.90
1686;DHT22;840;47.980;7.830;2023-04-01T07:51:02;10.60;99.90
1686;DHT22;840;47.980;7.830;2023-04-01T07:53:33;10.60;99.90
1686;DHT22;840;47.980;7.830;2023-04-01T07:56:06;10.60;99.90
1686;DHT22;840;47.980;7.830;2023-04-01T07:58:44;10.50;99.90
1686;DHT22;840;47.980;7.830;2023-04-01T08:01:19;10.60;99.90
1686;DHT22;840;47.980;7.830;2023-04-01T08:04:04;10.60;99.90
1686;DHT22;840;47.980;7.830;2023-04-01T08:06:41;10.60;99.90
1686;DHT22;840;47.980;7.830;2023-04-01T08:09:16;10.60;99.90
1686;DHT22;840;47.980;7.830;2023-04-01T08:11:53;10.60;99.90
1686;DHT22;840;47.980;7.830;2023-04-01T08:14:32;10.70;99.90
1686;DHT22;840;47.980;7.830;2023-04-01T08:17:06;10.60;99.90
1686;DHT22;840;47.980;7.830;2023-04-01T08:19:48;10.70;99.90
1686;DHT22;840;47.980;7.830;2023-04-01T08:22:25;10.60;99.90
1686;DHT22;840;47.980;7.830;2023-04-01T08:24:55;10.60;99.90
1686;DHT22;840;47.980;7.830;2023-04-01T08:27:31;10.60;99.90
1686;DHT22;840;47.980;7.830;2023-04-01T08:30:14;10.60;99.90
1686;DHT22;840;47.980;7.830;2023-04-01T08:32:45;10.60;99.90
1686;DHT22;840;47.980;7.830;2023-04-01T08:35:18;10.70;99.90
1686;DHT22;840;47.980;7.830;2023-04-01T08:37:47;10.60;99.90
1686;DHT22;840;47.980;7.830;2023-04-01T08:40:39;10.60;99.90
1686;DHT22;840;47.980;7.830;2023-04-01T08:43:13;10.70;99.90
1686;DHT22;840;47.980;7.830;2023-04-01T08:46:00;10.70;99.90
1686;DHT22;840;47.980;7.830;2023-04-01T08:48:40;10.70;99.90
1686;DHT22;840;47.980;7.830;2023-04-01T08:54:35;10.80;99.90
1686;DHT22;840;47.980;7.830;2023-04-01T08:57:11;10.90;99.90
1686;DHT22;840;47.980;7.830;2023-04-01T08:59:54;11.00;99.90
1686;DHT22;840;47.980;7.830;2023-04-01T09:02:48;11.00;99.90
1686;DHT22;840;47.980;7.830;2023-04-01T09:08:28;11.20;99.90
1686;DHT22;840;47.980;7.830;2023-04-01T09:11:05;11.20;99.90
1686;DHT22;840;47.980;7.830;2023-04-01T09:13:47;11.20;99.90
1686;DHT22;840;47.980;7.830;2023-04-01T09:16:24;11.30;99.90
1686;DHT22;840;47.980;7.830;2023-04-01T09:19:09;11.30;99.90
1686;DHT22;840;47.980;7.830;2023-04-01T09:21:53;11.40;99.90
1686;DHT22;840;47.980;7.830;2023-04-01T09:24:42;11.40;99.90
1686;DHT22;840;47.980;7.830;2023-04-01T09:27:18;11.40;99.90
1686;DHT22;840;47.980;7.830;2023-04-01T09:30:28;11.30;99.90
1686;DHT22;840;47.980;7.830;2023-04-01T09:33:36;11.30;99.90
1686;DHT22;840;47.980;7.830;2023-04-01T09:36:16;11.30;99.90
1686;DHT22;840;47.980;7.830;2023-04-01T09:38:56;11.40;99.90
1686;DHT22;840;47.980;7.830;2023-04-01T09:41:29;11.40;99.90
1686;DHT22;840;47.980;7.830;2023-04-01T09:44:01;11.40;99.90
1686;DHT22;840;47.980;7.830;2023-04-01T09:46:36;11.50;99.90
1686;DHT22;840;47.980;7.830;2023-04-01T09:49:34;11.60;99.90
1686;DHT22;840;47.980;7.830;2023-04-01T09:52:14;11.60;99.90
1686;DHT22;840;47.980;7.830;2023-04-01T09:54:59;11.60;99.90
1686;DHT22;840;47.980;7.830;2023-04-01T09:57:55;11.60;99.90
1686;DHT22;840;47.980;7.830;2023-04-01T10:00:55;11.60;99.90
1686;DHT22;840;47.980;7.830;2023-04-01T10:03:54;11.60;99.90
1686;DHT22;840;47.980;7.830;2023-04-01T10:06:57;11.60;99.90
1686;DHT22;840;47.980;7.830;2023-04-01T10:12:56;11.50;99.90
1686;DHT22;840;47.980;7.830;2023-04-01T10:16:03;11.50;99.90
1686;DHT22;840;47.980;7.830;2023-04-01T10:18:51;11.40;99.90
1686;DHT22;840;47.980;7.830;2023-04-01T10:21:53;11.40;99.90
1686;DHT22;840;47.980;7.830;2023-04-01T10:24:42;11.40;99.90
1686;DHT22;840;47.980;7.830;2023-04-01T10:27:21;11.50;99.90
1686;DHT22;840;47.980;7.830;2023-04-01T10:36:34;11.60;99.90
1686;DHT22;840;47.980;7.830;2023-04-01T10:39:37;11.60;99.90
1686;DHT22;840;47.980;7.830;2023-04-01T10:42:41;11.50;99.90
1686;DHT22;840;47.980;7.830;2023-04-01T10:48:30;11.50;99.90
1686;DHT22;840;47.980;7.830;2023-04-01T10:51:17;11.50;99.90
1686;DHT22;840;47.980;7.830;2023-04-01T10:54:14;11.50;99.90
1686;DHT22;840;47.980;7.830;2023-04-01T10:56:49;11.60;99.90
1686;DHT22;840;47.980;7.830;2023-04-01T10:59:59;11.60;99.90
1686;DHT22;840;47.980;7.830;2023-04-01T11:03:10;11.60;99.90
1686;DHT22;840;47.980;7.830;2023-04-01T11:12:27;11.70;99.90
1686;DHT22;840;47.980;7.830;2023-04-01T11:18:33;11.70;99.90
1686;DHT22;840;47.980;7.830;2023-04-01T11:21:49;11.70;99.90
1686;DHT22;840;47.980;7.830;2023-04-01T11:24:39;11.70;99.90
1686;DHT22;840;47.980;7.830;2023-04-01T11:27:21;11.70;99.90
1686;DHT22;840;47.980;7.830;2023-04-01T11:30:16;11.70;99.90
1686;DHT22;840;47.980;7.830;2023-04-01T11:32:52;11.60;99.90
1686;DHT22;840;47.980;7.830;2023-04-01T11:35:44;11.60;99.90
1686;DHT22;840;47.980;7.830;2023-04-01T11:38:24;11.60;99.90
1686;DHT22;840;47.980;7.830;2023-04-01T11:40:59;11.60;99.90
1686;DHT22;840;47.980;7.830;2023-04-01T11:43:34;11.60;99.90
1686;DHT22;840;47.980;7.830;2023-04-01T11:46:10;11.60;99.90
1686;DHT22;840;47.980;7.830;2023-04-01T11:48:52;11.70;99.90
1686;DHT22;840;47.980;7.830;2023-04-01T11:51:44;11.70;99.90
1686;DHT22;840;47.980;7.830;2023-04-01T11:54:26;11.70;99.90
1686;DHT22;840;47.980;7.830;2023-04-01T11:57:09;11.70;99.90
1686;DHT22;840;47.980;7.830;2023-04-01T11:59:52;11.70;99.90
1686;DHT22;840;47.980;7.830;2023-04-01T12:02:29;11.70;99.90
1686;DHT22;840;47.980;7.830;2023-04-01T12:05:30;11.70;99.90
1686;DHT22;840;47.980;7.830;2023-04-01T12:08:07;11.80;99.90
1686;DHT22;840;47.980;7.830;2023-04-01T12:10:39;11.70;99.90
1686;DHT22;840;47.980;7.830;2023-04-01T12:13:20;11.70;99.90
1686;DHT22;840;47.980;7.830;2023-04-01T12:16:00;11.70;99.90
1686;DHT22;840;47.980;7.830;2023-04-01T12:18:38;11.80;99.90
1686;DHT22;840;47.980;7.830;2023-04-01T12:21:15;11.80;99.90
1686;DHT22;840;47.980;7.830;2023-04-01T12:24:02;11.90;99.90
1686;DHT22;840;47.980;7.830;2023-04-01T12:26:52;11.90;99.90
1686;DHT22;840;47.980;7.830;2023-04-01T12:29:44;11.90;99.90
1686;DHT22;840;47.980;7.830;2023-04-01T12:32:23;11.90;99.90
1686;DHT22;840;47.980;7.830;2023-04-01T12:35:15;11.90;99.90
1686;DHT22;840;47.980;7.830;2023-04-01T12:37:54;11.90;99.90
1686;DHT22;840;47.980;7.830;2023-04-01T12:40:36;12.00;99.90
1686;DHT22;840;47.980;7.830;2023-04-01T12:43:20;12.00;99.90
1686;DHT22;840;47.980;7.830;2023-04-01T12:45:54;12.00;99.90
1686;DHT22;840;47.980;7.830;2023-04-01T12:48:52;12.00;99.90
1686;DHT22;840;47.980;7.830;2023-04-01T12:51:45;12.00;99.90
1686;DHT22;840;47.980;7.830;2023-04-01T12:55:06;12.00;99.90
1686;DHT22;840;47.980;7.830;2023-04-01T13:00:47;12.20;99.90
1686;DHT22;840;47.980;7.830;2023-04-01T13:03:32;12.20;99.90
1686;DHT22;840;47.980;7.830;2023-04-01T13:06:31;12.20;99.90
1686;DHT22;840;47.980;7.830;2023-04-01T13:09:11;12.20;99.90
1686;DHT22;840;47.980;7.830;2023-04-01T13:11:50;12.20;99.90
1686;DHT22;840;47.980;7.830;2023-04-01T13:14:44;12.10;99.90
1686;DHT22;840;47.980;7.830;2023-04-01T13:17:17;12.10;99.90
1686;DHT22;840;47.980;7.830;2023-04-01T13:19:50;12.20;99.90
1686;DHT22;840;47.980;7.830;2023-04-01T13:22:29;12.20;99.90
1686;DHT22;840;47.980;7.830;2023-04-01T13:25:03;12.30;99.90
1686;DHT22;840;47.980;7.830;2023-04-01T13:27:35;12.40;99.90
1686;DHT22;840;47.980;7.830;2023-04-01T13:30:19;12.40;99.90
1686;DHT22;840;47.980;7.830;2023-04-01T13:32:53;12.40;99.90
1686;DHT22;840;47.980;7.830;2023-04-01T13:35:29;12.50;99.90
1686;DHT22;840;47.980;7.830;2023-04-01T13:38:12;12.50;99.90
1686;DHT22;840;47.980;7.830;2023-04-01T13:40:51;12.60;99.90
1686;DHT22;840;47.980;7.830;2023-04-01T13:43:22;12.50;99.90
1686;DHT22;840;47.980;7.830;2023-04-01T13:46:16;12.60;99.90
1686;DHT22;840;47.980;7.830;2023-04-01T13:49:20;12.70;99.90
1686;DHT22;840;47.980;7.830;2023-04-01T13:52:03;12.70;99.90
1686;DHT22;840;47.980;7.830;2023-04-01T13:54:52;12.90;99.90
1686;DHT22;840;47.980;7.830;2023-04-01T13:57:36;13.00;99.90
1686;DHT22;840;47.980;7.830;2023-04-01T14:00:25;13.00;99.90
1686;DHT22;840;47.980;7.830;2023-04-01T14:06:23;13.20;99.90
1686;DHT22;840;47.980;7.830;2023-04-01T14:09:23;13.20;99.90
1686;DHT22;840;47.980;7.830;2023-04-01T14:11:56;13.30;99.90
1686;DHT22;840;47.980;7.830;2023-04-01T14:14:40;13.50;99.90
1686;DHT22;840;47.980;7.830;2023-04-01T14:17:24;13.60;99.90
1686;DHT22;840;47.980;7.830;2023-04-01T14:20:24;13.70;99.90
1686;DHT22;840;47.980;7.830;2023-04-01T14:23:06;13.80;99.90
1686;DHT22;840;47.980;7.830;2023-04-01T14:26:03;13.80;99.90
1686;DHT22;840;47.980;7.830;2023-04-01T14:28:41;13.70;99.90
1686;DHT22;840;47.980;7.830;2023-04-01T14:31:36;13.60;99.90
1686;DHT22;840;47.980;7.830;2023-04-01T14:34:22;13.40;99.90
1686;DHT22;840;47.980;7.830;2023-04-01T14:37:13;12.90;99.90
1686;DHT22;840;47.980;7.830;2023-04-01T14:40:05;12.50;99.90
1686;DHT22;840;47.980;7.830;2023-04-01T14:42:54;12.20;99.90
1686;DHT22;840;47.980;7.830;2023-04-01T14:45:45;12.00;99.90
1686;DHT22;840;47.980;7.830;2023-04-01T14:48:25;12.00;99.90
1686;DHT22;840;47.980;7.830;2023-04-01T14:51:01;12.00;99.90
1686;DHT22;840;47.980;7.830;2023-04-01T14:53:33;12.10;99.90
1686;DHT22;840;47.980;7.830;2023-04-01T14:56:04;12.20;99.90
1686;DHT22;840;47.980;7.830;2023-04-01T14:58:42;12.30;99.90
1686;DHT22;840;47.980;7.830;2023-04-01T15:01:32;12.50;99.90
1686;DHT22;840;47.980;7.830;2023-04-01T15:04:22;12.80;99.90
1686;DHT22;840;47.980;7.830;2023-04-01T15:07:06;13.00;99.90
1686;DHT22;840;47.980;7.830;2023-04-01T15:09:42;13.20;99.90
1686;DHT22;840;47.980;7.830;2023-04-01T15:12:21;13.50;99.90
1686;DHT22;840;47.980;7.830;2023-04-01T15:15:03;13.80;99.90
1686;DHT22;840;47.980;7.830;2023-04-01T15:17:48;14.00;99.90
1686;DHT22;840;47.980;7.830;2023-04-01T15:20:42;14.30;99.90
1686;DHT22;840;47.980;7.830;2023-04-01T15:23:23;14.40;99.90
1686;DHT22;840;47.980;7.830;2023-04-01T15:26:11;14.60;99.90
1686;DHT22;840;47.980;7.830;2023-04-01T15:28:46;14.70;99.90
1686;DHT22;840;47.980;7.830;2023-04-01T15:31:21;14.90;99.90
1686;DHT22;840;47.980;7.830;2023-04-01T15:34:11;14.80;99.90
1686;DHT22;840;47.980;7.830;2023-04-01T15:36:49;14.70;99.90
1686;DHT22;840;47.980;7.830;2023-04-01T15:39:23;14.50;99.90
1686;DHT22;840;47.980;7.830;2023-04-01T15:42:14;14.30;99.90
1686;DHT22;840;47.980;7.830;2023-04-01T15:44:52;14.10;99.90
1686;DHT22;840;47.980;7.830;2023-04-01T15:47:39;14.00;99.90
1686;DHT22;840;47.980;7.830;2023-04-01T15:50:43;13.80;99.90
1686;DHT22;840;47.980;7.830;2023-04-01T15:53:34;13.60;99.90
1686;DHT22;840;47.980;7.830;2023-04-01T15:56:13;13.40;99.90
1686;DHT22;840;47.980;7.830;2023-04-01T15:58:52;13.20;99.90
1686;DHT22;840;47.980;7.830;2023-04-01T16:01:31;13.00;99.90
1686;DHT22;840;47.980;7.830;2023-04-01T16:07:15;12.80;99.90
1686;DHT22;840;47.980;7.830;2023-04-01T16:09:56;12.80;99.90
1686;DHT22;840;47.980;7.830;2023-04-01T16:12:37;12.90;99.90
1686;DHT22;840;47.980;7.830;2023-04-01T16:15:17;12.90;99.90
1686;DHT22;840;47.980;7.830;2023-04-01T16:18:09;12.90;99.90
1686;DHT22;840;47.980;7.830;2023-04-01T16:20:46;13.00;99.90
1686;DHT22;840;47.980;7.830;2023-04-01T16:23:22;13.10;99.90
1686;DHT22;840;47.980;7.830;2023-04-01T16:26:01;13.10;99.90
1686;DHT22;840;47.980;7.830;2023-04-01T16:28:32;13.10;99.90
1686;DHT22;840;47.980;7.830;2023-04-01T16:31:05;13.10;99.90
1686;DHT22;840;47.980;7.830;2023-04-01T16:33:44;13.10;99.90
1686;DHT22;840;47.980;7.830;2023-04-01T16:36:22;13.00;99.90
1686;DHT22;840;47.980;7.830;2023-04-01T16:39:05;12.90;99.90
1686;DHT22;840;47.980;7.830;2023-04-01T16:41:36;12.90;99.90
1686;DHT22;840;47.980;7.830;2023-04-01T16:44:17;12.90;99.90
1686;DHT22;840;47.980;7.830;2023-04-01T16:46:46;12.90;99.90
1686;DHT22;840;47.980;7.830;2023-04-01T16:49:24;12.90;99.90
1686;DHT22;840;47.980;7.830;2023-04-01T16:52:04;13.00;99.90
1686;DHT22;840;47.980;7.830;2023-04-01T16:54:43;13.00;99.90
1686;DHT22;840;47.980;7.830;2023-04-01T16:57:21;13.00;99.90
1686;DHT22;840;47.980;7.830;2023-04-01T16:59:56;12.90;99.90
1686;DHT22;840;47.980;7.830;2023-04-01T17:02:28;12.90;99.90
1686;DHT22;840;47.980;7.830;2023-04-01T17:05:01;12.90;99.90
1686;DHT22;840;47.980;7.830;2023-04-01T17:07:38;12.90;99.90
1686;DHT22;840;47.980;7.830;2023-04-01T17:10:32;12.80;99.90
1686;DHT22;840;47.980;7.830;2023-04-01T17:13:21;12.70;99.90
1686;DHT22;840;47.980;7.830;2023-04-01T17:16:00;12.70;99.90
1686;DHT22;840;47.980;7.830;2023-04-01T17:18:38;12.70;99.90
1686;DHT22;840;47.980;7.830;2023-04-01T17:21:14;12.60;99.90
1686;DHT22;840;47.980;7.830;2023-04-01T17:23:46;12.60;99.90
1686;DHT22;840;47.980;7.830;2023-04-01T17:26:24;12.60;99.90
1686;DHT22;840;47.980;7.830;2023-04-01T17:28:58;12.50;99.90
1686;DHT22;840;47.980;7.830;2023-04-01T17:31:41;12.50;99.90
1686;DHT22;840;47.980;7.830;2023-04-01T17:34:29;12.40;99.90
1686;DHT22;840;47.980;7.830;2023-04-01T17:37:09;12.40;99.90
1686;DHT22;840;47.980;7.830;2023-04-01T17:39:53;12.30;99.90
1686;DHT22;840;47.980;7.830;2023-04-01T17:42:27;12.30;99.90
1686;DHT22;840;47.980;7.830;2023-04-01T17:49:23;12.20;99.90
1686;DHT22;840;47.980;7.830;2023-04-01T17:51:58;12.10;99.90
1686;DHT22;840;47.980;7.830;2023-04-01T17:54:32;12.00;99.90
1686;DHT22;840;47.980;7.830;2023-04-01T17:57:22;11.90;99.90
1686;DHT22;840;47.980;7.830;2023-04-01T17:59:57;11.90;99.90
1686;DHT22;840;47.980;7.830;2023-04-01T18:02:34;11.80;99.90
1686;DHT22;840;47.980;7.830;2023-04-01T18:05:20;11.70;99.90
1686;DHT22;840;47.980;7.830;2023-04-01T18:08:12;11.60;99.90
1686;DHT22;840;47.980;7.830;2023-04-01T18:10:51;11.60;99.90
1686;DHT22;840;47.980;7.830;2023-04-01T18:13:45;11.50;99.90
1686;DHT22;840;47.980;7.830;2023-04-01T18:16:28;11.50;99.90
1686;DHT22;840;47.980;7.830;2023-04-01T18:19:02;11.50;99.90
1686;DHT22;840;47.980;7.830;2023-04-01T18:21:43;11.40;99.90
1686;DHT22;840;47.980;7.830;2023-04-01T18:24:18;11.40;99.90